Camas, Washington
Current Conditions -  °F | °C
As of 9:53 AM on Thursday 27 Nov 2014 (Local Time) from KTTD Reporting Station
Overcast Overcast  
Wind Chill: 57°   Ceiling: 5000
Heat Index: 57°   Visibility: 10mi
Dew Point: 48°   Wind: 7mph
Humidity: 72%   Direction: 180°S
Pressure: 29.98"   Gusts: NA
Location:  45.59°N, 122.4°W
Report Text: KTTD 271753Z AUTO 18006KT 10SM OVC050 14/09 A2998 RMK AO2 SLP153 60002 T01390089 10167 20133 51014
Loading
Personal Weather Stations






























Interactive Weather Map New forecast layout! Learn more

10-Day Weather Forecast

Advertisements
Track Severe Weather on mobile